createdAt,value
2022-10-23T00:00:20.303Z,11.73
2022-10-23T00:02:54.371Z,12.98
2022-10-23T00:05:22.203Z,11.15
2022-10-23T00:07:53.153Z,10.68
2022-10-23T00:10:21.269Z,13.55
2022-10-23T00:12:49.286Z,12.15
2022-10-23T00:15:17.927Z,11.35
2022-10-23T00:17:45.789Z,9.75
2022-10-23T00:20:16.562Z,10.63
2022-10-23T00:22:43.887Z,9.02
2022-10-23T00:25:11.615Z,15.32
2022-10-23T00:27:39.076Z,11.70
2022-10-23T00:30:07.128Z,9.38
2022-10-23T00:32:34.548Z,9.15
2022-10-23T00:35:01.935Z,11.35
2022-10-23T00:37:30.641Z,14.48
2022-10-23T00:39:57.954Z,11.55
2022-10-23T00:42:25.480Z,16.05
2022-10-23T00:45:16.225Z,14.07
2022-10-23T00:47:43.750Z,10.77
2022-10-23T00:50:11.085Z,16.98
2022-10-23T00:52:42.399Z,9.75
2022-10-23T00:55:10.179Z,10.95
2022-10-23T00:57:38.751Z,8.85
2022-10-23T01:00:06.615Z,14.40
2022-10-23T01:02:34.087Z,12.05
2022-10-23T01:05:01.506Z,9.70
2022-10-23T01:07:31.027Z,11.13
2022-10-23T01:10:03.242Z,8.88
2022-10-23T01:12:34.611Z,8.88
2022-10-23T01:15:06.389Z,11.30
2022-10-23T01:17:39.671Z,10.00
2022-10-23T01:20:19.313Z,10.73
2022-10-23T01:22:55.874Z,8.60
2022-10-23T01:25:45.977Z,10.45
2022-10-23T01:28:16.728Z,10.63
2022-10-23T01:30:45.227Z,8.85
2022-10-23T01:33:14.657Z,12.15
2022-10-23T01:35:46.621Z,9.70
2022-10-23T01:38:15.571Z,7.72
2022-10-23T01:40:45.267Z,12.15
2022-10-23T01:43:14.198Z,14.45
2022-10-23T01:45:43.953Z,14.98
2022-10-23T01:48:14.310Z,9.90
2022-10-23T01:50:42.591Z,11.32
2022-10-23T01:53:10.052Z,11.25
2022-10-23T01:55:38.372Z,9.15
2022-10-23T01:58:07.308Z,11.88
2022-10-23T02:00:35.416Z,13.60
2022-10-23T02:03:04.605Z,13.00
2022-10-23T02:05:32.353Z,10.77
2022-10-23T02:08:01.579Z,14.30
2022-10-23T02:10:32.031Z,14.82
2022-10-23T02:13:02.069Z,10.38
2022-10-23T02:15:30.598Z,16.92
2022-10-23T02:18:03.231Z,13.50
2022-10-23T02:20:35.661Z,11.52
2022-10-23T02:23:07.126Z,11.63
2022-10-23T02:25:37.010Z,10.90
2022-10-23T02:28:06.063Z,11.15
2022-10-23T02:30:34.424Z,11.15
2022-10-23T02:33:03.317Z,13.80
2022-10-23T02:35:32.021Z,10.40
2022-10-23T02:38:00.479Z,9.43
2022-10-23T02:40:31.711Z,13.40
2022-10-23T02:43:00.931Z,10.10
2022-10-23T02:45:30.883Z,17.27
2022-10-23T02:48:01.603Z,10.02
2022-10-23T02:50:32.276Z,10.63
2022-10-23T02:53:04.483Z,9.45
2022-10-23T02:55:35.361Z,12.00
2022-10-23T03:00:33.582Z,10.00
2022-10-23T03:03:03.066Z,9.50
2022-10-23T03:05:32.063Z,11.07
2022-10-23T03:08:03.361Z,8.07
2022-10-23T03:10:30.685Z,9.98
2022-10-23T03:12:58.185Z,9.77
2022-10-23T03:15:25.652Z,8.48
2022-10-23T03:17:53.043Z,11.48
2022-10-23T03:20:20.459Z,12.93
2022-10-23T03:22:47.806Z,10.70
2022-10-23T03:25:16.683Z,10.38
2022-10-23T03:27:44.059Z,10.95
2022-10-23T03:30:11.710Z,13.48
2022-10-23T03:32:39.126Z,11.15
2022-10-23T03:35:06.912Z,8.90
2022-10-23T03:37:34.295Z,13.07
2022-10-23T03:40:01.641Z,10.60
2022-10-23T03:42:30.294Z,10.93
2022-10-23T03:44:57.670Z,15.15
2022-10-23T03:47:25.076Z,13.20
2022-10-23T03:49:52.402Z,10.88
2022-10-23T03:52:19.749Z,12.38
2022-10-23T03:54:47.131Z,11.98
2022-10-23T03:57:14.465Z,10.98
2022-10-23T03:59:43.147Z,9.80
2022-10-23T04:02:10.550Z,13.05
2022-10-23T04:04:37.940Z,9.30
2022-10-23T04:07:05.315Z,11.75
2022-10-23T04:09:32.657Z,13.93
2022-10-23T04:12:00.016Z,10.45
2022-10-23T04:14:27.607Z,9.57
2022-10-23T04:16:56.314Z,11.18
2022-10-23T04:19:23.634Z,13.13
2022-10-23T04:21:51.018Z,8.52
2022-10-23T04:24:18.376Z,11.93
2022-10-23T04:26:45.726Z,11.02
2022-10-23T04:29:13.064Z,10.73
2022-10-23T04:31:40.463Z,10.65
2022-10-23T04:34:09.211Z,10.98
2022-10-23T04:36:36.626Z,9.88
2022-10-23T04:39:04.013Z,12.73
2022-10-23T04:41:31.376Z,10.25
2022-10-23T04:43:58.712Z,11.55
2022-10-23T04:46:26.151Z,10.77
2022-10-23T04:48:53.528Z,15.77
2022-10-23T04:51:22.262Z,11.48
2022-10-23T04:53:49.648Z,10.15
2022-10-23T04:56:17.037Z,11.93
2022-10-23T04:58:44.438Z,13.40
2022-10-23T05:01:11.999Z,12.70
2022-10-23T05:03:39.538Z,16.05
2022-10-23T05:06:07.485Z,12.88
2022-10-23T05:08:36.810Z,11.30
2022-10-23T05:11:04.303Z,15.00
2022-10-23T05:13:31.653Z,13.05
2022-10-23T05:15:59.439Z,10.05
2022-10-23T05:18:30.180Z,16.60
2022-10-23T05:21:00.218Z,13.13
2022-10-23T05:23:27.895Z,12.13
2022-10-23T05:25:56.587Z,12.30
2022-10-23T05:28:24.016Z,13.63
2022-10-23T05:30:51.330Z,12.25
2022-10-23T05:33:18.791Z,10.98
2022-10-23T05:35:46.291Z,16.92
2022-10-23T05:38:15.233Z,13.48
2022-10-23T05:40:42.599Z,14.32
2022-10-23T05:43:11.292Z,12.10
2022-10-23T05:45:38.675Z,11.75
2022-10-23T05:48:16.886Z,11.02
2022-10-23T05:50:50.026Z,14.70
2022-10-23T05:53:17.378Z,15.88
2022-10-23T05:55:44.709Z,11.90
2022-10-23T05:58:13.406Z,12.35
2022-10-23T06:00:40.814Z,14.15
2022-10-23T06:03:08.165Z,14.82
2022-10-23T06:05:35.581Z,14.80
2022-10-23T06:08:02.959Z,13.75
2022-10-23T06:10:31.897Z,10.02
2022-10-23T06:12:59.258Z,14.27
2022-10-23T06:15:28.247Z,14.45
2022-10-23T06:17:55.570Z,10.32
2022-10-23T06:20:26.564Z,12.13
2022-10-23T06:22:56.159Z,13.68
2022-10-23T06:25:23.569Z,12.32
2022-10-23T06:27:51.813Z,13.75
2022-10-23T06:30:19.291Z,13.55
2022-10-23T06:32:47.986Z,13.82
2022-10-23T06:35:15.738Z,14.45
2022-10-23T06:37:43.130Z,12.48
2022-10-23T06:40:10.784Z,10.93
2022-10-23T06:42:38.183Z,17.05
2022-10-23T06:45:06.550Z,11.25
2022-10-23T06:47:34.689Z,10.60
2022-10-23T06:50:03.425Z,11.82
2022-10-23T06:52:46.356Z,12.43
2022-10-23T06:55:14.176Z,14.25
2022-10-23T06:57:41.924Z,17.55
2022-10-23T07:00:10.285Z,15.70
2022-10-23T07:02:37.905Z,15.05
2022-10-23T07:05:09.857Z,13.77
2022-10-23T07:07:40.135Z,15.35
2022-10-23T07:10:07.997Z,17.20
2022-10-23T07:12:35.444Z,18.80
2022-10-23T07:15:02.834Z,20.20
2022-10-23T07:17:30.227Z,18.58
2022-10-23T07:19:57.569Z,17.83
2022-10-23T07:22:26.277Z,20.15
2022-10-23T07:24:53.646Z,17.65
2022-10-23T07:27:21.003Z,16.15
2022-10-23T07:29:50.755Z,16.42
2022-10-23T07:32:18.322Z,21.17
2022-10-23T07:34:45.698Z,20.20
2022-10-23T07:37:13.086Z,14.90
2022-10-23T07:39:41.756Z,14.18
2022-10-23T07:42:10.281Z,14.10
2022-10-23T07:44:37.626Z,13.93
2022-10-23T07:47:05.187Z,12.63
2022-10-23T07:49:32.518Z,14.85
2022-10-23T07:51:59.888Z,13.77
2022-10-23T07:54:27.263Z,15.10
2022-10-23T07:56:55.940Z,14.55
2022-10-23T07:59:23.335Z,14.05
2022-10-23T08:01:53.785Z,13.77
2022-10-23T08:04:24.255Z,13.23
2022-10-23T08:06:51.607Z,13.02
2022-10-23T08:09:19.222Z,14.80
2022-10-23T08:11:46.609Z,9.68
2022-10-23T08:14:15.334Z,11.32
2022-10-23T08:16:42.683Z,10.73
2022-10-23T08:19:10.055Z,12.30
2022-10-23T08:21:37.378Z,12.20
2022-10-23T08:24:05.135Z,10.98
2022-10-23T08:26:32.523Z,8.45
2022-10-23T08:29:00.494Z,10.00
2022-10-23T08:31:29.190Z,11.65
2022-10-23T08:33:56.541Z,9.50
2022-10-23T08:36:24.936Z,12.57
2022-10-23T08:38:53.613Z,12.32
2022-10-23T08:41:25.794Z,12.95
2022-10-23T08:43:55.453Z,10.77
2022-10-23T08:46:25.856Z,9.18
2022-10-23T08:48:56.922Z,12.93
2022-10-23T08:51:28.096Z,14.05
2022-10-23T08:53:58.414Z,12.77
2022-10-23T08:56:28.612Z,13.40
2022-10-23T08:58:57.882Z,11.07
2022-10-23T09:01:32.056Z,8.48
2022-10-23T09:04:01.050Z,9.50
2022-10-23T09:06:33.319Z,9.85
2022-10-23T09:09:05.397Z,7.45
2022-10-23T09:11:35.773Z,9.07
2022-10-23T09:14:18.417Z,10.45
2022-10-23T09:16:53.448Z,10.13
2022-10-23T09:19:26.294Z,11.70
2022-10-23T09:21:55.039Z,14.82
2022-10-23T09:24:23.755Z,14.50
2022-10-23T09:26:52.058Z,11.07
2022-10-23T09:29:22.763Z,10.82
2022-10-23T09:31:50.525Z,9.75
2022-10-23T09:34:19.714Z,9.98
2022-10-23T09:36:51.965Z,9.50
2022-10-23T09:39:22.704Z,9.27
2022-10-23T09:41:50.901Z,10.10
2022-10-23T09:44:21.167Z,12.55
2022-10-23T09:49:22.828Z,9.63
2022-10-23T09:51:54.796Z,8.57
2022-10-23T09:54:24.023Z,6.90
2022-10-23T09:56:52.684Z,8.85
2022-10-23T09:59:24.719Z,5.97
2022-10-23T10:01:53.384Z,8.35
2022-10-23T10:04:31.577Z,7.80
2022-10-23T10:07:01.847Z,8.48
2022-10-23T10:09:29.270Z,8.80
2022-10-23T10:11:59.210Z,8.45
2022-10-23T10:14:40.103Z,9.88
2022-10-23T10:17:12.736Z,9.52
2022-10-23T10:19:45.185Z,9.02
2022-10-23T10:22:18.636Z,8.55
2022-10-23T10:24:49.992Z,9.90
2022-10-23T10:27:21.750Z,7.90
2022-10-23T10:29:55.180Z,9.02
2022-10-23T10:32:31.965Z,14.57
2022-10-23T10:35:04.650Z,6.53
2022-10-23T10:37:38.928Z,6.50
2022-10-23T10:40:11.205Z,6.57
2022-10-23T10:42:55.548Z,8.30
2022-10-23T10:45:27.450Z,9.25
2022-10-23T10:48:05.663Z,9.38
2022-10-23T10:50:38.147Z,6.97
2022-10-23T10:53:10.239Z,4.80
2022-10-23T10:55:39.173Z,6.43
2022-10-23T10:58:11.282Z,8.23
2022-10-23T11:00:38.694Z,5.68
2022-10-23T11:03:12.403Z,7.25
2022-10-23T11:05:42.490Z,8.52
2022-10-23T11:08:14.556Z,7.05
2022-10-23T11:10:43.144Z,5.40
2022-10-23T11:13:19.413Z,6.07
2022-10-23T11:15:47.140Z,6.40
2022-10-23T11:18:18.353Z,6.65
2022-10-23T11:20:52.745Z,6.10
2022-10-23T11:23:31.124Z,6.75
2022-10-23T11:26:06.275Z,5.55
2022-10-23T11:28:40.339Z,5.10
2022-10-23T11:31:12.104Z,7.13
2022-10-23T11:34:06.844Z,8.82
2022-10-23T11:36:41.827Z,7.22
2022-10-23T11:39:17.396Z,6.28
2022-10-23T11:41:49.896Z,5.25
2022-10-23T11:44:26.198Z,8.68
2022-10-23T11:47:01.228Z,15.23
2022-10-23T11:49:28.620Z,16.05
2022-10-23T11:52:03.299Z,13.18
2022-10-23T11:54:32.447Z,8.23
2022-10-23T11:57:11.298Z,8.52
2022-10-23T11:59:43.100Z,3.10
2022-10-23T12:02:20.090Z,6.18
2022-10-23T12:04:48.456Z,7.78
2022-10-23T12:07:17.470Z,11.00
2022-10-23T12:09:47.305Z,7.93
2022-10-23T12:12:28.091Z,4.90
2022-10-23T12:15:07.034Z,6.18
2022-10-23T12:17:36.843Z,4.75
2022-10-23T12:20:20.188Z,5.68
2022-10-23T12:22:51.656Z,7.07
2022-10-23T12:25:24.220Z,5.88
2022-10-23T12:27:54.308Z,7.47
2022-10-23T12:33:05.046Z,5.60
2022-10-23T12:35:57.715Z,5.07
2022-10-23T12:38:26.200Z,5.65
2022-10-23T12:40:56.430Z,4.60
2022-10-23T12:45:51.181Z,4.60
2022-10-23T12:48:19.477Z,7.22
2022-10-23T12:50:50.276Z,8.05
2022-10-23T12:53:18.508Z,5.28
2022-10-23T12:55:48.563Z,3.53
2022-10-23T12:58:21.304Z,4.80
2022-10-23T13:00:52.200Z,6.57
2022-10-23T13:03:21.401Z,6.97
2022-10-23T13:05:48.918Z,6.07
2022-10-23T13:08:16.373Z,7.15
2022-10-23T13:10:43.856Z,3.95
2022-10-23T13:13:12.793Z,4.70
2022-10-23T13:15:42.157Z,5.85
2022-10-23T13:18:10.031Z,4.72
2022-10-23T13:20:38.934Z,5.25
2022-10-23T13:23:10.974Z,8.98
2022-10-23T13:25:39.135Z,4.18
2022-10-23T13:28:12.993Z,6.20
2022-10-23T13:30:43.010Z,3.70
2022-10-23T13:33:17.152Z,6.97
2022-10-23T13:35:44.499Z,8.13
2022-10-23T13:38:11.872Z,6.13
2022-10-23T13:40:39.250Z,5.38
2022-10-23T13:43:12.307Z,8.05
2022-10-23T13:45:41.728Z,5.15
2022-10-23T13:48:13.767Z,5.40
2022-10-23T13:50:41.179Z,6.38
2022-10-23T13:53:09.478Z,5.55
2022-10-23T13:55:39.067Z,5.53
2022-10-23T13:58:06.387Z,5.22
2022-10-23T14:00:33.751Z,7.63
2022-10-23T14:03:01.139Z,5.95
2022-10-23T14:05:29.807Z,5.45
2022-10-23T14:07:57.192Z,7.13
2022-10-23T14:10:27.055Z,8.57
2022-10-23T14:12:55.226Z,4.00
2022-10-23T14:15:22.717Z,5.53
2022-10-23T14:17:50.111Z,6.65
2022-10-23T14:20:19.111Z,7.68
2022-10-23T14:22:48.473Z,7.50
2022-10-23T14:25:16.009Z,6.75
2022-10-23T14:27:43.520Z,5.60
2022-10-23T14:30:11.519Z,9.38
2022-10-23T14:32:38.896Z,5.45
2022-10-23T14:35:06.767Z,5.68
2022-10-23T14:37:34.650Z,7.38
2022-10-23T14:40:03.432Z,6.35
2022-10-23T14:42:34.101Z,5.80
2022-10-23T14:45:02.501Z,6.32
2022-10-23T14:47:30.115Z,5.00
2022-10-23T14:49:57.525Z,7.20
2022-10-23T14:52:25.125Z,4.40
2022-10-23T14:54:53.327Z,4.25
2022-10-23T14:57:22.417Z,3.78
2022-10-23T14:59:50.290Z,7.97
2022-10-23T15:02:17.963Z,5.82
2022-10-23T15:04:45.414Z,3.63
2022-10-23T15:07:12.780Z,5.70
2022-10-23T15:09:40.151Z,6.43
2022-10-23T15:12:07.982Z,6.63
2022-10-23T15:14:36.717Z,5.97
2022-10-23T15:17:04.334Z,4.32
2022-10-23T15:19:31.831Z,7.85
2022-10-23T15:21:59.164Z,9.20
2022-10-23T15:24:26.575Z,5.85
2022-10-23T15:26:54.847Z,6.85
2022-10-23T15:29:22.903Z,8.13
2022-10-23T15:31:53.386Z,6.65
2022-10-23T15:34:21.977Z,8.43
2022-10-23T15:36:49.763Z,5.28
2022-10-23T15:39:18.776Z,9.57
2022-10-23T15:41:46.554Z,6.97
2022-10-23T15:44:15.123Z,5.68
2022-10-23T15:46:42.670Z,10.32
2022-10-23T15:49:11.613Z,10.05
2022-10-23T15:51:39.386Z,12.45
2022-10-23T15:54:07.261Z,7.10
2022-10-23T15:56:34.720Z,6.45
2022-10-23T15:59:02.294Z,7.03
2022-10-23T16:01:29.896Z,6.25
2022-10-23T16:03:57.375Z,7.68
2022-10-23T16:06:26.176Z,7.40
2022-10-23T16:11:27.021Z,9.10
2022-10-23T16:13:54.981Z,10.18
2022-10-23T16:16:22.387Z,11.38
2022-10-23T16:18:49.935Z,9.00
2022-10-23T16:21:18.707Z,16.73
2022-10-23T16:23:47.620Z,15.45
2022-10-23T16:26:15.018Z,11.40
2022-10-23T16:28:43.799Z,11.52
2022-10-23T16:31:12.393Z,11.13
2022-10-23T16:33:41.073Z,12.85
2022-10-23T16:36:09.506Z,9.10
2022-10-23T16:38:37.397Z,11.23
2022-10-23T16:41:07.133Z,9.35
2022-10-23T16:43:34.636Z,8.90
2022-10-23T16:46:06.358Z,9.10
2022-10-23T16:48:34.357Z,8.95
2022-10-23T16:51:05.362Z,10.63
2022-10-23T16:53:33.186Z,7.70
2022-10-23T16:56:00.588Z,8.23
2022-10-23T16:58:29.235Z,12.18
2022-10-23T17:00:57.459Z,8.30
2022-10-23T17:03:24.981Z,8.88
2022-10-23T17:05:52.401Z,7.07
2022-10-23T17:08:19.755Z,7.88
2022-10-23T17:10:47.122Z,8.10
2022-10-23T17:13:14.453Z,6.55
2022-10-23T17:15:43.168Z,8.27
2022-10-23T17:18:10.507Z,7.47
2022-10-23T17:20:38.067Z,7.05
2022-10-23T17:23:05.398Z,10.05
2022-10-23T17:25:32.762Z,6.82
2022-10-23T17:28:00.083Z,7.43
2022-10-23T17:30:27.558Z,9.23
2022-10-23T17:32:59.454Z,9.75
2022-10-23T17:35:29.178Z,9.38
2022-10-23T17:37:56.883Z,7.50
2022-10-23T17:40:25.648Z,8.85
2022-10-23T17:42:53.010Z,6.80
2022-10-23T17:45:20.370Z,9.75
2022-10-23T17:47:47.752Z,9.00
2022-10-23T17:50:16.646Z,7.15
2022-10-23T17:52:44.257Z,7.72
2022-10-23T17:55:11.921Z,7.28
2022-10-23T17:57:39.304Z,9.48
2022-10-23T18:00:07.219Z,6.38
2022-10-23T18:02:34.641Z,7.80
2022-10-23T18:05:02.079Z,11.52
2022-10-23T18:07:30.807Z,8.30
2022-10-23T18:09:58.170Z,6.20
2022-10-23T18:12:25.524Z,8.63
2022-10-23T18:14:52.901Z,7.10
2022-10-23T18:17:20.249Z,6.20
2022-10-23T18:19:50.530Z,6.57
2022-10-23T18:24:47.505Z,8.63
2022-10-23T18:27:14.836Z,8.20
2022-10-23T18:29:43.408Z,10.82
2022-10-23T18:32:10.763Z,5.63
2022-10-23T18:34:38.169Z,6.10
2022-10-23T18:37:05.534Z,9.50
2022-10-23T18:39:32.978Z,7.15
2022-10-23T18:42:01.649Z,9.40
2022-10-23T18:44:29.302Z,8.13
2022-10-23T18:46:57.493Z,6.68
2022-10-23T18:49:24.957Z,6.32
2022-10-23T18:51:52.390Z,8.25
2022-10-23T18:54:20.649Z,7.32
2022-10-23T18:56:48.494Z,9.27
2022-10-23T18:59:18.287Z,7.75
2022-10-23T19:01:45.744Z,6.63
2022-10-23T19:04:15.632Z,6.20
2022-10-23T19:06:43.307Z,6.85
2022-10-23T19:09:11.675Z,6.53
2022-10-23T19:11:39.399Z,6.10
2022-10-23T19:14:06.814Z,6.88
2022-10-23T19:16:38.417Z,6.95
2022-10-23T19:19:08.239Z,9.63
2022-10-23T19:21:37.410Z,7.75
2022-10-23T19:24:06.655Z,6.25
2022-10-23T19:26:35.194Z,8.65
2022-10-23T19:29:02.728Z,10.65
2022-10-23T19:31:30.083Z,6.28
2022-10-23T19:33:58.752Z,8.25
2022-10-23T19:36:26.159Z,7.18
2022-10-23T19:38:53.642Z,9.32
2022-10-23T19:41:21.343Z,5.97
2022-10-23T19:43:48.740Z,7.57
2022-10-23T19:46:16.192Z,10.32
2022-10-23T19:48:44.853Z,7.50
2022-10-23T19:51:13.875Z,7.78
2022-10-23T19:53:42.481Z,9.68
2022-10-23T19:56:11.589Z,7.50
2022-10-23T19:58:39.359Z,9.50
2022-10-23T20:01:11.227Z,11.93
2022-10-23T20:03:39.298Z,7.32
2022-10-23T20:06:09.106Z,6.28
2022-10-23T20:08:37.781Z,13.02
2022-10-23T20:11:05.251Z,8.75
2022-10-23T20:13:32.667Z,9.40
2022-10-23T20:16:00.036Z,7.20
2022-10-23T20:18:27.501Z,6.57
2022-10-23T20:20:55.041Z,6.97
2022-10-23T20:23:22.757Z,7.75
2022-10-23T20:25:51.491Z,8.35
2022-10-23T20:28:18.888Z,8.90
2022-10-23T20:30:46.417Z,8.75
2022-10-23T20:33:13.805Z,8.52
2022-10-23T20:35:41.435Z,6.45
2022-10-23T20:38:08.938Z,6.95
2022-10-23T20:40:36.351Z,9.00
2022-10-23T20:43:05.058Z,7.68
2022-10-23T20:45:32.478Z,8.40
2022-10-23T20:47:59.830Z,8.27
2022-10-23T20:50:27.207Z,6.90
2022-10-23T20:52:54.582Z,8.85
2022-10-23T20:55:21.937Z,8.55
2022-10-23T20:57:49.330Z,9.05
2022-10-23T21:00:18.142Z,9.82
2022-10-23T21:02:47.213Z,6.70
2022-10-23T21:05:17.431Z,11.32
2022-10-23T21:07:44.773Z,9.18
2022-10-23T21:10:12.242Z,8.45
2022-10-23T21:12:39.609Z,8.57
2022-10-23T21:15:07.640Z,6.57
2022-10-23T21:17:40.333Z,6.85
2022-10-23T21:20:07.946Z,10.60
2022-10-23T21:22:35.324Z,9.32
2022-10-23T21:25:02.681Z,8.13
2022-10-23T21:27:30.074Z,8.98
2022-10-23T21:29:57.416Z,9.48
2022-10-23T21:32:24.790Z,10.40
2022-10-23T21:34:55.042Z,9.30
2022-10-23T21:37:24.894Z,9.10
2022-10-23T21:39:52.279Z,10.07
2022-10-23T21:42:19.659Z,10.95
2022-10-23T21:44:47.059Z,8.50
2022-10-23T21:47:14.410Z,8.50
2022-10-23T21:49:41.824Z,9.55
2022-10-23T21:52:10.489Z,10.93
2022-10-23T21:54:37.856Z,12.60
2022-10-23T21:57:05.232Z,7.90
2022-10-23T21:59:36.039Z,9.10
2022-10-23T22:02:03.796Z,8.27
2022-10-23T22:04:31.255Z,9.60
2022-10-23T22:06:58.576Z,8.73
2022-10-23T22:09:27.287Z,7.53
2022-10-23T22:11:54.963Z,9.63
2022-10-23T22:14:22.444Z,10.13
2022-10-23T22:16:50.005Z,7.43
2022-10-23T22:19:17.940Z,9.30
2022-10-23T22:21:45.463Z,9.85
2022-10-23T22:24:12.935Z,9.57
2022-10-23T22:26:42.532Z,6.68
2022-10-23T22:29:11.005Z,9.85
2022-10-23T22:31:39.365Z,10.45
2022-10-23T22:34:18.680Z,9.73
2022-10-23T22:36:54.552Z,14.00
2022-10-23T22:39:22.246Z,8.95
2022-10-23T22:41:51.000Z,10.68
2022-10-23T22:44:18.403Z,7.78
2022-10-23T22:46:46.471Z,8.55
2022-10-23T22:49:13.847Z,9.63
2022-10-23T22:51:41.551Z,10.23
2022-10-23T22:54:09.042Z,7.57
2022-10-23T22:56:36.427Z,8.15
2022-10-23T22:59:05.639Z,9.85
2022-10-23T23:01:33.937Z,11.52
2022-10-23T23:04:08.930Z,11.02
2022-10-23T23:06:48.749Z,9.60
2022-10-23T23:09:18.069Z,11.20
2022-10-23T23:11:52.144Z,10.80
2022-10-23T23:14:24.097Z,9.50
2022-10-23T23:16:52.372Z,8.95
2022-10-23T23:19:19.783Z,8.85
2022-10-23T23:21:47.165Z,11.18
2022-10-23T23:24:14.549Z,10.23
2022-10-23T23:26:41.908Z,10.45
2022-10-23T23:29:09.254Z,11.55
2022-10-23T23:31:37.945Z,9.43
2022-10-23T23:34:05.348Z,10.57
2022-10-23T23:36:32.739Z,10.10
2022-10-23T23:39:00.482Z,9.98
2022-10-23T23:41:28.439Z,8.68
2022-10-23T23:43:56.365Z,11.02
2022-10-23T23:46:24.148Z,11.00
2022-10-23T23:48:52.895Z,13.90
2022-10-23T23:51:21.481Z,12.10
2022-10-23T23:53:49.347Z,9.93
2022-10-23T23:56:17.185Z,10.68
2022-10-23T23:58:44.567Z,12.13
